Mineral, Virginia
Current Conditions -  °F | °C
As of 2:15 PM on Friday 21 Nov 2014 (Local Time) from KLKU Reporting Station
Clear Clear  
Wind Chill: 34°   Ceiling: Unl
Heat Index: 39°   Visibility: 10mi
Dew Point:   Wind: 7mph
Humidity: 26%   Direction: 280°W
Pressure: 30.43"   Gusts: NA
Location:  38.01°N, 77.91°W
Report Text: KLKU 211915Z AUTO 28006KT 10SM CLR 04/M14 A3043 RMK AO2
Loading
Personal Weather Stations






























Interactive Weather Map New forecast layout! Learn more

10-Day Weather Forecast

Advertisements
Track Severe Weather on mobile